Charlottesville Albemarle Airport Charlottesville US
ICAO: KCHO
IATA: CHO
Category: Medium
Scheduled Services: Yes

Elevation: 639 ft
TransAlt. 18000 ft.

Airport Communications:
POTOMAC APP/DEP:132.85
ASOS:118.425
ATIS:118.425
CTAF:124.5
GND:121.9
LEESBURG RDO:122.2
TWR:124.5
UNICOM:122.95

KCHO Zoom In..

If Map Doesn't Load, Click Here

Runways:

(A) RW 03 length 6801 ft width 150 ft
ILS 111.70 / hdg 30

(B) RW 21 length 6801 ft width 150 ft
---- / hdg 210

Location; KCHO
Day. 21 / Time. 14.53 Zulu
* Altimeter: 30.21
* Temperature: 22° c. 71.6°f.
* Wind from: 200° Speed 05 kn.
Dewpoint: 21° c.
Visibility: 3 Statute Miles.
Clouds: Overcast 400 ft.
Conditions: Mist.

KCHO 211453Z 20005KT 3SM BR OVC004 22/21 A3021 RMK AO2 SLP222 T02220206 58006


Wind From 200°
Speed 05 kn.

 
 
jpsmedia.com for Web Design worldairports.se 2018   terms of use